createdAt,value
2022-07-31T00:00:20.063Z,48.85
2022-07-31T00:02:48.654Z,48.92
2022-07-31T00:05:20.016Z,48.95
2022-07-31T00:07:48.301Z,49.00
2022-07-31T00:10:19.158Z,49.09
2022-07-31T00:12:47.219Z,49.13
2022-07-31T00:15:14.092Z,48.87
2022-07-31T00:17:42.271Z,49.19
2022-07-31T00:20:13.423Z,49.23
2022-07-31T00:22:44.433Z,49.25
2022-07-31T00:25:12.602Z,49.19
2022-07-31T00:27:40.393Z,49.34
2022-07-31T00:30:07.803Z,49.23
2022-07-31T00:32:34.655Z,49.38
2022-07-31T00:35:01.689Z,49.45
2022-07-31T00:37:28.236Z,49.62
2022-07-31T00:39:54.831Z,49.70
2022-07-31T00:42:23.214Z,49.71
2022-07-31T00:44:51.275Z,49.62
2022-07-31T00:47:18.922Z,49.50
2022-07-31T00:49:50.926Z,49.58
2022-07-31T00:52:17.494Z,49.78
2022-07-31T00:54:44.116Z,49.62
2022-07-31T00:57:10.784Z,49.89
2022-07-31T00:59:37.449Z,49.98
2022-07-31T01:02:04.735Z,49.93
2022-07-31T01:04:31.543Z,49.82
2022-07-31T01:07:00.654Z,49.89
2022-07-31T01:09:27.736Z,50.13
2022-07-31T01:11:59.336Z,50.07
2022-07-31T01:14:29.854Z,49.91
2022-07-31T01:16:59.269Z,49.96
2022-07-31T01:19:42.041Z,50.02
2022-07-31T01:22:46.949Z,49.96
2022-07-31T01:25:51.826Z,50.02
2022-07-31T01:29:00.458Z,50.01
2022-07-31T01:31:53.461Z,49.94
2022-07-31T01:34:27.864Z,50.14
2022-07-31T01:37:06.860Z,50.05
2022-07-31T01:39:41.572Z,50.22
2022-07-31T01:42:12.045Z,50.36
2022-07-31T01:44:43.495Z,50.13
2022-07-31T01:47:19.119Z,50.42
2022-07-31T01:49:47.872Z,50.12
2022-07-31T01:52:15.298Z,50.32
2022-07-31T01:54:44.200Z,50.34
2022-07-31T01:57:13.152Z,50.13
2022-07-31T01:59:46.340Z,50.23
2022-07-31T02:02:14.885Z,50.19
2022-07-31T02:04:47.089Z,50.25
2022-07-31T02:07:15.184Z,50.39
2022-07-31T02:09:58.310Z,50.40
2022-07-31T02:12:32.109Z,50.42
2022-07-31T02:15:06.487Z,50.34
2022-07-31T02:17:34.491Z,50.28
2022-07-31T02:20:02.197Z,50.43
2022-07-31T02:22:29.667Z,50.38
2022-07-31T02:24:56.390Z,50.39
2022-07-31T02:27:55.439Z,50.35
2022-07-31T02:30:13.531Z,50.45
2022-07-31T02:32:41.500Z,50.31
2022-07-31T02:35:09.900Z,50.44
2022-07-31T02:37:38.356Z,50.49
2022-07-31T02:40:06.689Z,50.56
2022-07-31T02:42:34.273Z,50.45
2022-07-31T02:45:02.476Z,50.54
2022-07-31T02:47:29.597Z,50.52
2022-07-31T02:49:58.059Z,50.65
2022-07-31T02:52:26.500Z,50.67
2022-07-31T02:54:53.616Z,50.79
2022-07-31T02:57:20.326Z,50.61
2022-07-31T02:59:46.982Z,50.78
2022-07-31T03:02:13.561Z,50.89
2022-07-31T03:04:40.289Z,50.77
2022-07-31T03:07:06.954Z,50.88
2022-07-31T03:09:33.689Z,50.97
2022-07-31T03:12:04.361Z,51.07
2022-07-31T03:14:33.114Z,50.78
2022-07-31T03:17:00.667Z,50.94
2022-07-31T03:19:28.720Z,50.92
2022-07-31T03:21:56.366Z,50.98
2022-07-31T03:24:23.108Z,51.04
2022-07-31T03:26:49.801Z,50.78
2022-07-31T03:29:39.182Z,50.98
2022-07-31T03:32:03.469Z,50.91
2022-07-31T03:34:30.193Z,51.08
2022-07-31T03:36:56.764Z,51.17
2022-07-31T03:39:23.330Z,51.14
2022-07-31T03:41:51.463Z,51.28
2022-07-31T03:44:20.155Z,51.08
2022-07-31T03:46:47.150Z,51.39
2022-07-31T03:49:14.688Z,51.28
2022-07-31T03:51:41.382Z,51.33
2022-07-31T03:54:08.064Z,51.28
2022-07-31T03:56:35.761Z,51.39
2022-07-31T03:59:03.393Z,51.38
2022-07-31T04:01:57.512Z,51.43
2022-07-31T04:04:18.440Z,51.19
2022-07-31T04:06:45.124Z,51.36
2022-07-31T04:09:18.431Z,51.36
2022-07-31T04:11:46.028Z,51.40
2022-07-31T04:14:12.714Z,51.43
2022-07-31T04:16:39.288Z,51.42
2022-07-31T04:19:05.882Z,51.40
2022-07-31T04:21:32.513Z,51.47
2022-07-31T04:23:59.220Z,51.56
2022-07-31T04:26:26.373Z,51.47
2022-07-31T04:28:53.192Z,51.40
2022-07-31T04:31:19.989Z,51.42
2022-07-31T04:33:48.354Z,51.23
2022-07-31T04:36:29.678Z,51.29
2022-07-31T04:39:01.430Z,51.54
2022-07-31T04:41:28.657Z,51.46
2022-07-31T04:43:57.280Z,51.75
2022-07-31T04:46:27.041Z,51.72
2022-07-31T04:48:53.683Z,51.68
2022-07-31T04:51:22.017Z,51.58
2022-07-31T04:53:50.194Z,51.76
2022-07-31T04:56:33.444Z,51.71
2022-07-31T04:59:06.690Z,51.69
2022-07-31T05:01:34.521Z,51.83
2022-07-31T05:04:01.593Z,51.79
2022-07-31T05:06:40.557Z,51.73
2022-07-31T05:09:15.084Z,51.74
2022-07-31T05:11:46.009Z,51.81
2022-07-31T05:14:14.505Z,51.75
2022-07-31T05:16:41.104Z,51.82
2022-07-31T05:19:13.765Z,51.90
2022-07-31T05:21:52.877Z,51.81
2022-07-31T05:24:32.584Z,51.80
2022-07-31T05:27:02.481Z,51.94
2022-07-31T05:29:29.804Z,51.92
2022-07-31T05:32:00.505Z,51.79
2022-07-31T05:34:30.130Z,51.92
2022-07-31T05:36:59.185Z,51.99
2022-07-31T05:39:26.683Z,51.98
2022-07-31T05:41:53.253Z,52.06
2022-07-31T05:44:19.923Z,51.98
2022-07-31T05:46:46.628Z,52.00
2022-07-31T05:49:13.409Z,51.93
2022-07-31T05:51:43.649Z,51.96
2022-07-31T05:54:10.263Z,51.96
2022-07-31T05:56:36.891Z,51.98
2022-07-31T05:59:03.832Z,51.91
2022-07-31T06:01:30.573Z,52.06
2022-07-31T06:03:57.332Z,52.06
2022-07-31T06:06:23.912Z,52.07
2022-07-31T06:08:50.494Z,51.94
2022-07-31T06:11:17.177Z,51.90
2022-07-31T06:13:43.910Z,51.95
2022-07-31T06:16:16.595Z,51.90
2022-07-31T06:18:43.201Z,51.96
2022-07-31T06:23:37.001Z,51.80
2022-07-31T06:26:04.339Z,51.83
2022-07-31T06:28:48.137Z,51.80
2022-07-31T06:31:25.080Z,51.90
2022-07-31T06:33:52.663Z,51.99
2022-07-31T06:36:19.582Z,52.04
2022-07-31T06:38:46.480Z,51.89
2022-07-31T06:41:36.131Z,51.71
2022-07-31T06:44:02.797Z,52.00
2022-07-31T06:46:29.442Z,51.75
2022-07-31T06:48:56.111Z,51.63
2022-07-31T06:51:31.666Z,51.70
2022-07-31T06:54:03.504Z,51.74
2022-07-31T06:56:31.517Z,51.60
2022-07-31T06:58:58.237Z,51.79
2022-07-31T07:01:24.873Z,51.52
2022-07-31T07:03:51.576Z,51.75
2022-07-31T07:06:18.544Z,51.30
2022-07-31T07:08:45.494Z,51.28
2022-07-31T07:11:12.795Z,51.61
2022-07-31T07:13:45.980Z,51.54
2022-07-31T07:16:14.424Z,51.27
2022-07-31T07:18:41.060Z,51.40
2022-07-31T07:21:07.661Z,51.42
2022-07-31T07:23:35.710Z,51.35
2022-07-31T07:26:02.459Z,51.12
2022-07-31T07:28:30.572Z,51.48
2022-07-31T07:30:57.898Z,51.06
2022-07-31T07:33:40.714Z,51.43
2022-07-31T07:36:23.426Z,51.22
2022-07-31T07:38:55.730Z,51.36
2022-07-31T07:41:26.376Z,50.93
2022-07-31T07:43:53.447Z,50.97
2022-07-31T07:46:22.183Z,50.96
2022-07-31T07:48:51.007Z,51.08
2022-07-31T07:51:18.206Z,51.14
2022-07-31T07:53:44.776Z,51.13
2022-07-31T07:56:11.564Z,51.13
2022-07-31T07:58:38.235Z,50.82
2022-07-31T08:01:04.917Z,51.01
2022-07-31T08:03:49.879Z,50.87
2022-07-31T08:06:18.629Z,50.83
2022-07-31T08:08:45.297Z,50.74
2022-07-31T08:11:17.411Z,50.95
2022-07-31T08:13:50.078Z,50.98
2022-07-31T08:16:17.790Z,50.58
2022-07-31T08:18:44.468Z,50.90
2022-07-31T08:21:11.262Z,50.46
2022-07-31T08:23:38.181Z,50.44
2022-07-31T08:26:06.563Z,50.42
2022-07-31T08:28:33.264Z,50.39
2022-07-31T08:31:00.712Z,50.69
2022-07-31T08:33:27.473Z,50.43
2022-07-31T08:35:54.212Z,50.76
2022-07-31T08:38:21.941Z,50.32
2022-07-31T08:40:48.793Z,50.26
2022-07-31T08:46:03.257Z,50.23
2022-07-31T08:48:32.761Z,50.30
2022-07-31T08:51:02.634Z,50.13
2022-07-31T08:53:33.021Z,50.17
2022-07-31T08:56:00.399Z,50.32
2022-07-31T08:58:27.136Z,50.12
2022-07-31T09:00:53.878Z,50.23
2022-07-31T09:03:20.731Z,50.40
2022-07-31T09:05:47.536Z,49.95
2022-07-31T09:08:15.139Z,50.37
2022-07-31T09:10:46.287Z,49.93
2022-07-31T09:13:18.178Z,50.46
2022-07-31T09:15:45.290Z,49.88
2022-07-31T09:18:21.404Z,50.02
2022-07-31T09:20:59.563Z,49.80
2022-07-31T09:23:28.310Z,50.02
2022-07-31T09:26:02.023Z,49.69
2022-07-31T09:28:39.707Z,49.87
2022-07-31T09:31:09.437Z,49.92
2022-07-31T09:33:45.147Z,49.58
2022-07-31T09:36:14.151Z,49.67
2022-07-31T09:38:43.378Z,49.54
2022-07-31T09:41:55.638Z,49.44
2022-07-31T09:44:09.633Z,49.37
2022-07-31T09:46:47.178Z,49.51
2022-07-31T09:49:14.775Z,49.39
2022-07-31T09:51:44.414Z,49.32
2022-07-31T09:54:25.401Z,49.51
2022-07-31T09:56:52.446Z,49.30
2022-07-31T09:59:19.699Z,49.32
2022-07-31T10:01:49.130Z,49.47
2022-07-31T10:04:20.892Z,49.19
2022-07-31T10:06:49.855Z,49.12
2022-07-31T10:09:20.090Z,49.09
2022-07-31T10:11:49.771Z,49.17
2022-07-31T10:14:28.214Z,49.20
2022-07-31T10:16:58.616Z,49.07
2022-07-31T10:19:27.878Z,48.78
2022-07-31T10:21:57.576Z,48.90
2022-07-31T10:24:28.376Z,48.56
2022-07-31T10:27:01.157Z,48.70
2022-07-31T10:29:32.871Z,48.68
2022-07-31T10:32:01.187Z,48.65
2022-07-31T10:34:28.569Z,48.48
2022-07-31T10:36:59.171Z,48.33
2022-07-31T10:39:43.744Z,48.57
2022-07-31T10:42:30.748Z,48.18
2022-07-31T10:45:04.047Z,48.29
2022-07-31T10:47:31.071Z,48.26
2022-07-31T10:49:57.929Z,48.21
2022-07-31T10:52:31.476Z,48.15
2022-07-31T10:55:01.744Z,48.04
2022-07-31T10:57:33.381Z,48.12
2022-07-31T11:00:21.319Z,47.74
2022-07-31T11:02:48.428Z,47.95
2022-07-31T11:05:23.913Z,47.93
2022-07-31T11:08:02.937Z,47.77
2022-07-31T11:10:29.844Z,47.54
2022-07-31T11:13:15.656Z,47.78
2022-07-31T11:15:42.380Z,47.45
2022-07-31T11:18:24.365Z,47.56
2022-07-31T11:21:17.375Z,47.43
2022-07-31T11:24:02.080Z,47.26
2022-07-31T11:26:33.348Z,47.48
2022-07-31T11:30:01.343Z,47.11
2022-07-31T11:32:16.626Z,47.13
2022-07-31T11:34:43.638Z,46.96
2022-07-31T11:37:20.486Z,47.34
2022-07-31T11:39:51.300Z,47.22
2022-07-31T11:42:20.303Z,47.38
2022-07-31T11:45:01.787Z,47.01
2022-07-31T11:48:12.797Z,47.08
2022-07-31T11:50:31.052Z,46.91
2022-07-31T11:53:06.872Z,46.92
2022-07-31T11:55:48.684Z,47.26
2022-07-31T11:58:17.214Z,47.16
2022-07-31T12:00:48.167Z,47.05
2022-07-31T12:03:17.825Z,46.72
2022-07-31T12:05:49.256Z,47.05
2022-07-31T12:08:16.894Z,46.64
2022-07-31T12:10:45.456Z,47.00
2022-07-31T12:13:16.038Z,46.97
2022-07-31T12:15:59.912Z,46.82
2022-07-31T12:18:28.632Z,46.66
2022-07-31T12:21:03.426Z,47.00
2022-07-31T12:23:49.990Z,46.75
2022-07-31T12:26:28.453Z,46.74
2022-07-31T12:29:05.460Z,46.58
2022-07-31T12:31:44.665Z,46.70
2022-07-31T12:34:11.380Z,46.64
2022-07-31T12:36:37.944Z,46.62
2022-07-31T12:39:06.340Z,46.91
2022-07-31T12:41:43.199Z,46.71
2022-07-31T12:44:14.577Z,46.32
2022-07-31T12:46:42.005Z,46.76
2022-07-31T12:49:09.000Z,46.68
2022-07-31T12:51:45.578Z,46.94
2022-07-31T12:54:14.769Z,46.67
2022-07-31T12:56:42.924Z,46.84
2022-07-31T12:59:10.359Z,46.77
2022-07-31T13:01:37.581Z,47.24
2022-07-31T13:04:08.057Z,47.06
2022-07-31T13:06:48.757Z,47.27
2022-07-31T13:09:15.673Z,47.30
2022-07-31T13:11:46.871Z,47.22
2022-07-31T13:14:19.642Z,47.16
2022-07-31T13:16:47.361Z,47.44
2022-07-31T13:19:14.647Z,47.34
2022-07-31T13:21:48.888Z,47.26
2022-07-31T13:24:19.097Z,47.49
2022-07-31T13:26:45.891Z,47.55
2022-07-31T13:29:13.187Z,47.47
2022-07-31T13:31:40.287Z,47.59
2022-07-31T13:34:07.543Z,47.62
2022-07-31T13:36:39.469Z,47.69
2022-07-31T13:39:10.740Z,47.74
2022-07-31T13:41:39.411Z,47.49
2022-07-31T13:44:06.648Z,47.85
2022-07-31T13:46:33.504Z,47.85
2022-07-31T13:49:02.319Z,48.14
2022-07-31T13:51:30.206Z,48.01
2022-07-31T13:53:57.320Z,47.98
2022-07-31T13:56:39.549Z,48.05
2022-07-31T13:59:09.927Z,48.08
2022-07-31T14:02:05.136Z,48.20
2022-07-31T14:04:31.231Z,48.12
2022-07-31T14:07:00.695Z,48.10
2022-07-31T14:09:28.088Z,48.17
2022-07-31T14:11:56.139Z,48.53
2022-07-31T14:14:23.772Z,48.57
2022-07-31T14:16:50.745Z,48.36
2022-07-31T14:19:17.572Z,48.38
2022-07-31T14:21:56.303Z,48.34
2022-07-31T14:24:25.483Z,48.41
2022-07-31T14:26:52.654Z,48.55
2022-07-31T14:29:20.052Z,48.56
2022-07-31T14:31:47.248Z,48.50
2022-07-31T14:34:14.424Z,48.49
2022-07-31T14:36:41.073Z,48.59
2022-07-31T14:39:07.706Z,48.84
2022-07-31T14:41:34.574Z,49.09
2022-07-31T14:44:01.194Z,48.59
2022-07-31T14:46:27.778Z,49.11
2022-07-31T14:48:54.562Z,48.92
2022-07-31T14:51:21.496Z,48.86
2022-07-31T14:53:48.216Z,48.90
2022-07-31T14:56:23.437Z,49.17
2022-07-31T14:59:01.612Z,48.87
2022-07-31T15:01:30.631Z,49.18
2022-07-31T15:03:58.432Z,49.11
2022-07-31T15:06:41.580Z,49.33
2022-07-31T15:09:12.306Z,49.06
2022-07-31T15:11:59.055Z,49.45
2022-07-31T15:14:29.376Z,49.20
2022-07-31T15:16:56.746Z,49.36
2022-07-31T15:19:23.352Z,49.66
2022-07-31T15:22:10.470Z,49.75
2022-07-31T15:24:36.935Z,49.40
2022-07-31T15:27:04.162Z,49.47
2022-07-31T15:30:05.644Z,49.34
2022-07-31T15:32:17.774Z,49.55
2022-07-31T15:34:44.750Z,49.62
2022-07-31T15:37:20.377Z,49.53
2022-07-31T15:40:02.329Z,49.89
2022-07-31T15:42:37.915Z,49.96
2022-07-31T15:45:05.116Z,49.73
2022-07-31T15:47:32.359Z,49.85
2022-07-31T15:49:59.095Z,50.13
2022-07-31T15:52:26.349Z,49.97
2022-07-31T15:54:53.393Z,50.37
2022-07-31T15:57:21.482Z,50.06
2022-07-31T15:59:49.297Z,50.50
2022-07-31T16:02:16.154Z,50.33
2022-07-31T16:04:51.544Z,50.58
2022-07-31T16:08:30.686Z,50.57
2022-07-31T16:10:16.569Z,50.26
2022-07-31T16:12:48.184Z,50.62
2022-07-31T16:15:16.611Z,50.72
2022-07-31T16:17:43.810Z,50.41
2022-07-31T16:20:11.989Z,50.50
2022-07-31T16:22:41.092Z,50.79
2022-07-31T16:25:09.998Z,50.93
2022-07-31T16:27:37.953Z,50.93
2022-07-31T16:30:06.605Z,50.92
2022-07-31T16:32:33.753Z,50.65
2022-07-31T16:35:01.519Z,50.97
2022-07-31T16:37:50.091Z,51.00
2022-07-31T16:40:29.324Z,50.83
2022-07-31T16:43:00.960Z,51.21
2022-07-31T16:45:28.232Z,51.19
2022-07-31T16:47:54.916Z,51.28
2022-07-31T16:50:21.605Z,51.20
2022-07-31T16:52:52.698Z,51.34
2022-07-31T16:55:21.900Z,51.10
2022-07-31T16:58:11.219Z,51.19
2022-07-31T17:00:39.682Z,51.04
2022-07-31T17:03:06.444Z,51.23
2022-07-31T17:05:33.297Z,51.22
2022-07-31T17:08:00.021Z,51.38
2022-07-31T17:10:27.049Z,51.71
2022-07-31T17:12:54.442Z,51.33
2022-07-31T17:15:21.382Z,51.30
2022-07-31T17:17:48.249Z,51.45
2022-07-31T17:20:15.150Z,51.44
2022-07-31T17:22:42.918Z,51.50
2022-07-31T17:25:10.422Z,51.57
2022-07-31T17:27:37.119Z,51.71
2022-07-31T17:30:04.618Z,51.69
2022-07-31T17:32:32.441Z,51.52
2022-07-31T17:34:59.286Z,51.66
2022-07-31T17:37:26.218Z,51.75
2022-07-31T17:39:57.876Z,51.67
2022-07-31T17:42:25.865Z,52.05
2022-07-31T17:44:55.757Z,51.86
2022-07-31T17:47:25.600Z,51.99
2022-07-31T17:49:53.586Z,52.02
2022-07-31T17:52:23.153Z,52.00
2022-07-31T17:54:51.369Z,52.21
2022-07-31T17:57:18.509Z,51.88
2022-07-31T17:59:45.507Z,51.94
2022-07-31T18:02:12.297Z,52.13
2022-07-31T18:04:39.072Z,52.12
2022-07-31T18:07:07.425Z,52.01
2022-07-31T18:09:35.198Z,52.31
2022-07-31T18:12:02.208Z,52.34
2022-07-31T18:14:28.933Z,52.47
2022-07-31T18:16:55.646Z,52.14
2022-07-31T18:19:22.756Z,52.40
2022-07-31T18:21:50.732Z,52.43
2022-07-31T18:24:17.360Z,52.30
2022-07-31T18:26:44.091Z,52.57
2022-07-31T18:29:10.820Z,52.41
2022-07-31T18:31:37.849Z,52.36
2022-07-31T18:34:05.662Z,52.39
2022-07-31T18:36:34.329Z,52.77
2022-07-31T18:39:01.382Z,52.80
2022-07-31T18:41:28.028Z,52.47
2022-07-31T18:43:55.077Z,52.81
2022-07-31T18:46:23.650Z,52.51
2022-07-31T18:48:55.327Z,52.62
2022-07-31T18:51:24.004Z,52.66
2022-07-31T18:53:51.105Z,52.68
2022-07-31T18:56:17.845Z,52.62
2022-07-31T18:58:44.956Z,52.71
2022-07-31T19:01:11.965Z,53.09
2022-07-31T19:03:38.665Z,52.87
2022-07-31T19:06:05.458Z,52.87
2022-07-31T19:08:32.200Z,52.68
2022-07-31T19:10:59.461Z,52.57
2022-07-31T19:13:26.206Z,52.97
2022-07-31T19:15:55.860Z,52.75
2022-07-31T19:18:28.077Z,52.90
2022-07-31T19:21:22.602Z,52.78
2022-07-31T19:23:43.585Z,52.76
2022-07-31T19:26:10.437Z,52.88
2022-07-31T19:28:38.281Z,53.10
2022-07-31T19:31:05.679Z,52.99
2022-07-31T19:33:32.408Z,53.16
2022-07-31T19:36:02.273Z,52.99
2022-07-31T19:38:31.144Z,53.23
2022-07-31T19:40:58.034Z,52.93
2022-07-31T19:43:24.720Z,53.39
2022-07-31T19:46:09.796Z,52.79
2022-07-31T19:48:42.863Z,52.90
2022-07-31T19:51:11.552Z,52.98
2022-07-31T19:53:38.568Z,53.16
2022-07-31T19:56:06.250Z,52.94
2022-07-31T19:58:35.064Z,52.86
2022-07-31T20:01:02.870Z,52.96
2022-07-31T20:03:29.779Z,52.88
2022-07-31T20:05:57.102Z,53.27
2022-07-31T20:08:23.990Z,52.88
2022-07-31T20:10:51.463Z,53.02
2022-07-31T20:13:18.799Z,53.04
2022-07-31T20:15:51.098Z,52.88
2022-07-31T20:18:27.617Z,52.79
2022-07-31T20:20:57.262Z,52.87
2022-07-31T20:23:25.158Z,53.10
2022-07-31T20:25:51.790Z,52.84
2022-07-31T20:28:18.495Z,52.86
2022-07-31T20:30:45.155Z,53.18
2022-07-31T20:33:13.237Z,52.76
2022-07-31T20:35:47.893Z,53.20
2022-07-31T20:38:17.477Z,53.26
2022-07-31T20:40:49.947Z,53.39
2022-07-31T20:43:21.500Z,53.04
2022-07-31T20:45:48.405Z,53.34
2022-07-31T20:48:17.853Z,53.35
2022-07-31T20:50:47.711Z,52.99
2022-07-31T20:53:15.253Z,53.41
2022-07-31T20:55:46.877Z,53.26
2022-07-31T20:58:13.782Z,53.33
2022-07-31T21:00:40.957Z,53.06
2022-07-31T21:03:07.719Z,53.18
2022-07-31T21:05:34.302Z,52.93
2022-07-31T21:08:00.881Z,53.00
2022-07-31T21:10:29.680Z,53.31
2022-07-31T21:12:56.830Z,53.34
2022-07-31T21:15:41.729Z,53.26
2022-07-31T21:18:21.375Z,53.00
2022-07-31T21:20:50.861Z,53.07
2022-07-31T21:23:24.372Z,53.50
2022-07-31T21:25:52.314Z,53.47
2022-07-31T21:28:19.500Z,53.30
2022-07-31T21:30:46.208Z,53.12
2022-07-31T21:33:13.167Z,53.30
2022-07-31T21:35:40.631Z,53.45
2022-07-31T21:38:11.781Z,53.15
2022-07-31T21:40:40.287Z,53.16
2022-07-31T21:43:07.775Z,53.19
2022-07-31T21:45:50.417Z,53.16
2022-07-31T21:48:23.251Z,53.28
2022-07-31T21:50:49.989Z,53.22
2022-07-31T21:53:16.599Z,53.72
2022-07-31T21:55:44.013Z,53.60
2022-07-31T21:58:10.758Z,53.77
2022-07-31T22:00:37.469Z,53.57
2022-07-31T22:03:05.435Z,53.46
2022-07-31T22:05:51.552Z,53.49
2022-07-31T22:08:18.902Z,53.57
2022-07-31T22:10:46.141Z,53.79
2022-07-31T22:13:12.788Z,53.83
2022-07-31T22:15:54.240Z,53.66
2022-07-31T22:18:27.189Z,53.69
2022-07-31T22:20:54.396Z,53.64
2022-07-31T22:23:21.282Z,53.67
2022-07-31T22:25:50.907Z,53.62
2022-07-31T22:28:19.881Z,53.75
2022-07-31T22:30:47.281Z,54.21
2022-07-31T22:33:14.411Z,54.21
2022-07-31T22:35:41.160Z,54.31
2022-07-31T22:38:11.117Z,54.07
2022-07-31T22:40:37.853Z,54.06
2022-07-31T22:44:10.268Z,54.25
2022-07-31T22:45:53.525Z,54.18
2022-07-31T22:48:24.311Z,54.07
2022-07-31T22:50:50.948Z,54.39
2022-07-31T22:53:18.180Z,54.30
2022-07-31T22:55:44.843Z,54.40
2022-07-31T22:58:14.980Z,54.69
2022-07-31T23:00:42.533Z,54.29
2022-07-31T23:03:09.351Z,54.51
2022-07-31T23:06:13.151Z,54.59
2022-07-31T23:08:22.579Z,54.59
2022-07-31T23:10:49.314Z,54.56
2022-07-31T23:13:15.960Z,54.72
2022-07-31T23:15:43.753Z,54.86
2022-07-31T23:18:10.381Z,54.67
2022-07-31T23:20:36.940Z,54.72
2022-07-31T23:23:03.513Z,55.11
2022-07-31T23:25:30.091Z,55.01
2022-07-31T23:27:56.699Z,55.21
2022-07-31T23:30:24.300Z,55.06
2022-07-31T23:32:50.876Z,54.90
2022-07-31T23:35:17.753Z,55.25
2022-07-31T23:37:44.709Z,54.93
2022-07-31T23:40:11.891Z,55.15
2022-07-31T23:42:38.496Z,55.26
2022-07-31T23:45:12.238Z,54.98
2022-07-31T23:47:45.670Z,55.30
2022-07-31T23:50:14.037Z,55.06
2022-07-31T23:52:41.007Z,55.14
2022-07-31T23:55:08.338Z,55.38
2022-07-31T23:57:36.078Z,55.31
